Assumption, Illinois
Current Conditions -  °F | °C
As of 6:15 PM on Monday 24 Nov 2014 (Local Time) from KTAZ Reporting Station
Overcast Overcast  
Wind Chill: 24°   Ceiling: 3700
Heat Index: 34°   Visibility: 10mi
Dew Point: 28°   Wind: 14mph
Humidity: 81%   Direction: 250°WSW
Pressure: 29.85"   Gusts: 20mph
Location:  39.52°N, 89.05°W
Report Text: KTAZ 250015Z AUTO 25012G17KT 10SM OVC037 01/M02 A2985 RMK AO2
Loading
Personal Weather Stations






























Interactive Weather Map New forecast layout! Learn more

10-Day Weather Forecast

Advertisements
Track Severe Weather on mobile